createdAt,value
2022-11-05T00:00:43.018Z,2.8
2022-11-05T00:01:52.732Z,2.7
2022-11-05T00:03:02.369Z,3.1
2022-11-05T00:04:11.599Z,3.3
2022-11-05T00:05:21.301Z,3.3
2022-11-05T00:06:30.997Z,3.6
2022-11-05T00:07:40.669Z,3.4
2022-11-05T00:08:50.257Z,3.8
2022-11-05T00:09:59.943Z,3.6
2022-11-05T00:11:04.208Z,3.1
2022-11-05T00:12:08.647Z,3.5
2022-11-05T00:13:18.301Z,3.4
2022-11-05T00:14:27.821Z,3.5
2022-11-05T00:15:37.088Z,3.5
2022-11-05T00:16:46.882Z,3.1
2022-11-05T00:17:51.565Z,2.9
2022-11-05T00:18:55.997Z,2.9
2022-11-05T00:20:05.321Z,3
2022-11-05T00:21:09.881Z,2.9
2022-11-05T00:22:19.447Z,2.6
2022-11-05T00:23:29.053Z,3
2022-11-05T00:24:38.720Z,3.2
2022-11-05T00:25:48.373Z,3.1
2022-11-05T00:26:57.709Z,3
2022-11-05T00:28:02.245Z,3.7
2022-11-05T00:29:06.333Z,3.9
2022-11-05T00:30:10.425Z,4.1
2022-11-05T00:31:14.876Z,3.7
2022-11-05T00:32:19.549Z,3.8
2022-11-05T00:33:23.994Z,4
2022-11-05T00:34:28.116Z,3.5
2022-11-05T00:35:32.348Z,3.6
2022-11-05T00:36:36.861Z,3.4
2022-11-05T00:37:44.383Z,3.6
2022-11-05T00:38:45.497Z,4
2022-11-05T00:39:49.668Z,3.7
2022-11-05T00:40:54.322Z,3.6
2022-11-05T00:41:58.922Z,3.7
2022-11-05T00:43:08.793Z,3.8
2022-11-05T00:44:18.140Z,3.1
2022-11-05T00:45:27.745Z,3.6
2022-11-05T00:46:31.941Z,3.8
2022-11-05T00:47:36.457Z,3.8
2022-11-05T00:48:46.169Z,3.5
2022-11-05T00:49:55.901Z,3.5
2022-11-05T00:51:00.025Z,4
2022-11-05T00:52:04.126Z,4.1
2022-11-05T00:53:14.013Z,4
2022-11-05T00:54:18.261Z,4
2022-11-05T00:55:22.853Z,3.7
2022-11-05T00:56:30.030Z,4
2022-11-05T00:57:34.713Z,3.9
2022-11-05T00:58:39.084Z,3.5
2022-11-05T00:59:43.221Z,3.9
2022-11-05T01:00:47.841Z,3.4
2022-11-05T01:01:52.573Z,3.9
2022-11-05T01:02:57.143Z,3.3
2022-11-05T01:04:01.600Z,4
2022-11-05T01:05:06.185Z,3.2
2022-11-05T01:06:10.797Z,3.7
2022-11-05T01:07:15.317Z,3.3
2022-11-05T01:08:19.934Z,3.2
2022-11-05T01:09:24.525Z,3
2022-11-05T01:10:29.097Z,3.2
2022-11-05T01:11:33.851Z,3.5
2022-11-05T01:12:38.312Z,3.5
2022-11-05T01:13:42.946Z,3.3
2022-11-05T01:14:47.445Z,3.3
2022-11-05T01:15:51.677Z,4.2
2022-11-05T01:16:56.344Z,3.2
2022-11-05T01:18:00.874Z,3.2
2022-11-05T01:19:05.907Z,3.4
2022-11-05T01:20:10.164Z,2.8
2022-11-05T01:21:14.521Z,4.9
2022-11-05T01:22:19.064Z,3.8
2022-11-05T01:23:23.154Z,3
2022-11-05T01:24:27.778Z,3.8
2022-11-05T01:25:32.340Z,3.1
2022-11-05T01:26:36.905Z,2.7
2022-11-05T01:27:41.089Z,3
2022-11-05T01:28:45.789Z,2.8
2022-11-05T01:29:52.913Z,2.5
2022-11-05T01:30:57.564Z,3.1
2022-11-05T01:32:02.001Z,3
2022-11-05T01:33:06.110Z,2.6
2022-11-05T01:34:10.328Z,2.6
2022-11-05T01:35:14.608Z,3
2022-11-05T01:36:19.216Z,3.3
2022-11-05T01:37:23.777Z,3.2
2022-11-05T01:38:27.897Z,3.1
2022-11-05T01:39:32.497Z,3.7
2022-11-05T01:40:36.592Z,3.4
2022-11-05T01:41:40.860Z,3.1
2022-11-05T01:42:45.216Z,3.2
2022-11-05T01:43:49.327Z,3.7
2022-11-05T01:44:53.637Z,3.2
2022-11-05T01:45:57.993Z,3.5
2022-11-05T01:47:02.273Z,3.1
2022-11-05T01:48:06.977Z,2.5
2022-11-05T01:49:11.621Z,3.1
2022-11-05T01:50:23.988Z,3
2022-11-05T01:51:36.073Z,2.7
2022-11-05T01:52:40.245Z,3.3
2022-11-05T01:53:44.334Z,2.6
2022-11-05T01:54:51.669Z,3
2022-11-05T01:55:56.221Z,3.2
2022-11-05T01:57:05.954Z,3.7
2022-11-05T01:58:10.462Z,3.4
2022-11-05T01:59:15.056Z,3.2
2022-11-05T02:00:24.588Z,2.7
2022-11-05T02:01:28.861Z,3.2
2022-11-05T02:02:33.431Z,2.9
2022-11-05T02:03:37.858Z,3.3
2022-11-05T02:04:41.938Z,2.7
2022-11-05T02:05:49.244Z,2.8
2022-11-05T02:06:53.709Z,2.5
2022-11-05T02:07:57.816Z,2.7
2022-11-05T02:09:01.945Z,3.3
2022-11-05T02:10:09.082Z,3.2
2022-11-05T02:11:16.090Z,3.3
2022-11-05T02:12:20.728Z,3.4
2022-11-05T02:13:25.221Z,3.3
2022-11-05T02:14:29.830Z,3.1
2022-11-05T02:15:33.921Z,3.2
2022-11-05T02:16:43.657Z,2.9
2022-11-05T02:17:58.462Z,3.4
2022-11-05T02:19:08.212Z,3.5
2022-11-05T02:20:20.125Z,3.3
2022-11-05T02:21:35.110Z,3.8
2022-11-05T02:22:47.386Z,3.3
2022-11-05T02:23:54.941Z,2.8
2022-11-05T02:25:09.821Z,3.5
2022-11-05T02:26:24.373Z,3
2022-11-05T02:27:31.512Z,2.6
2022-11-05T02:28:43.922Z,2.6
2022-11-05T02:29:58.744Z,2.8
2022-11-05T02:31:05.749Z,3.4
2022-11-05T02:32:15.065Z,3
2022-11-05T02:33:19.465Z,2.6
2022-11-05T02:34:29.104Z,3.1
2022-11-05T02:35:41.345Z,3.1
2022-11-05T02:36:56.172Z,3
2022-11-05T02:38:05.860Z,2.9
2022-11-05T02:39:20.640Z,3.3
2022-11-05T02:40:30.084Z,3.5
2022-11-05T02:41:42.440Z,3.7
2022-11-05T02:42:49.670Z,3.1
2022-11-05T02:43:57.279Z,3.1
2022-11-05T02:45:12.140Z,3.6
2022-11-05T02:46:21.585Z,3.9
2022-11-05T02:47:31.372Z,3.8
2022-11-05T02:48:41.637Z,3.7
2022-11-05T02:49:51.233Z,3.5
2022-11-05T02:50:58.354Z,3.6
2022-11-05T02:52:05.501Z,3.2
2022-11-05T02:53:15.186Z,3.4
2022-11-05T02:54:24.584Z,3.9
2022-11-05T02:55:36.940Z,3.6
2022-11-05T02:56:49.085Z,3.4
2022-11-05T02:57:53.260Z,3.4
2022-11-05T02:58:57.880Z,3.4
2022-11-05T03:00:01.946Z,3.4
2022-11-05T03:01:06.548Z,3.4
2022-11-05T03:02:13.894Z,3.5
2022-11-05T03:03:18.128Z,3.3
2022-11-05T03:04:30.553Z,3.1
2022-11-05T03:05:35.185Z,3.4
2022-11-05T03:06:47.370Z,3.1
2022-11-05T03:08:02.122Z,3.8
2022-11-05T03:09:06.684Z,3.5
2022-11-05T03:10:21.285Z,3.2
2022-11-05T03:11:31.008Z,3.5
2022-11-05T03:12:40.800Z,3.1
2022-11-05T03:13:45.296Z,3.1
2022-11-05T03:14:52.549Z,3.1
2022-11-05T03:16:02.260Z,3.5
2022-11-05T03:17:06.739Z,3.1
2022-11-05T03:18:13.932Z,3
2022-11-05T03:19:21.344Z,3
2022-11-05T03:20:31.254Z,2.5
2022-11-05T03:21:35.765Z,2.6
2022-11-05T03:22:48.000Z,2.4
2022-11-05T03:23:52.560Z,2.7
2022-11-05T03:24:56.829Z,3.1
2022-11-05T03:26:01.420Z,3.3
2022-11-05T03:27:14.146Z,3.3
2022-11-05T03:28:21.214Z,3.4
2022-11-05T03:29:25.704Z,3.5
2022-11-05T03:30:32.868Z,3.4
2022-11-05T03:31:37.390Z,3.4
2022-11-05T03:32:42.092Z,3.9
2022-11-05T03:33:46.696Z,3
2022-11-05T03:34:51.316Z,3
2022-11-05T03:36:01.072Z,2.6
2022-11-05T03:37:08.544Z,2.8
2022-11-05T03:38:12.837Z,2.5
2022-11-05T03:39:22.124Z,2.5
2022-11-05T03:40:29.409Z,2.4
2022-11-05T03:41:33.969Z,2.6
2022-11-05T03:42:38.111Z,2.4
2022-11-05T03:43:42.701Z,2.5
2022-11-05T03:44:47.364Z,2.5
2022-11-05T03:45:51.808Z,2.5
2022-11-05T03:46:56.049Z,2.2
2022-11-05T03:48:03.274Z,2.6
2022-11-05T03:49:07.887Z,2.5
2022-11-05T03:50:12.372Z,2.5
2022-11-05T03:51:22.283Z,2.1
2022-11-05T03:52:36.840Z,2
2022-11-05T03:53:41.291Z,2
2022-11-05T03:54:50.652Z,1.7
2022-11-05T03:55:54.653Z,1.1
2022-11-05T03:57:03.829Z,1
2022-11-05T03:58:08.017Z,1
2022-11-05T03:59:12.572Z,0.9
2022-11-05T04:00:16.903Z,1
2022-11-05T04:01:21.110Z,1.1
2022-11-05T04:02:25.259Z,0.8
2022-11-05T04:03:29.708Z,0.8
2022-11-05T04:04:33.841Z,0.9
2022-11-05T04:05:38.371Z,1
2022-11-05T04:06:42.556Z,0.7
2022-11-05T04:07:52.160Z,0.9
2022-11-05T04:09:01.396Z,1
2022-11-05T04:10:10.653Z,1.1
2022-11-05T04:11:21.269Z,1.1
2022-11-05T04:12:30.824Z,1.5
2022-11-05T04:13:40.556Z,1.3
2022-11-05T04:14:45.108Z,1.4
2022-11-05T04:15:49.296Z,1.7
2022-11-05T04:16:58.960Z,1.6
2022-11-05T04:18:08.588Z,2
2022-11-05T04:19:13.095Z,1.5
2022-11-05T04:20:17.708Z,1.8
2022-11-05T04:21:27.318Z,1.6
2022-11-05T04:22:37.004Z,2
2022-11-05T04:23:46.215Z,1.8
2022-11-05T04:24:56.038Z,1.9
2022-11-05T04:26:00.759Z,2.2
2022-11-05T04:27:05.208Z,2.4
2022-11-05T04:28:09.732Z,2.5
2022-11-05T04:29:14.380Z,2.1
2022-11-05T04:30:23.811Z,1.9
2022-11-05T04:31:27.851Z,2.2
2022-11-05T04:32:32.400Z,2
2022-11-05T04:33:36.596Z,1.9
2022-11-05T04:34:40.866Z,1.6
2022-11-05T04:35:45.425Z,1.3
2022-11-05T04:36:49.999Z,1.7
2022-11-05T04:37:54.613Z,1.4
2022-11-05T04:38:58.768Z,1.7
2022-11-05T04:40:03.347Z,1.9
2022-11-05T04:41:08.137Z,2
2022-11-05T04:42:12.508Z,2.2
2022-11-05T04:43:17.232Z,2.4
2022-11-05T04:44:20.996Z,2.2
2022-11-05T04:45:25.172Z,2.2
2022-11-05T04:46:29.779Z,2.8
2022-11-05T04:47:34.355Z,2.3
2022-11-05T04:48:38.883Z,2.9
2022-11-05T04:49:42.935Z,2.5
2022-11-05T04:50:47.136Z,1.9
2022-11-05T04:51:51.695Z,1.7
2022-11-05T04:52:55.923Z,1.7
2022-11-05T04:54:00.442Z,1.1
2022-11-05T04:55:05.077Z,1.2
2022-11-05T04:56:09.212Z,1.4
2022-11-05T04:57:13.356Z,1.3
2022-11-05T04:58:17.648Z,1.3
2022-11-05T04:59:21.692Z,1.3
2022-11-05T05:00:25.859Z,1.4
2022-11-05T05:01:30.475Z,1.6
2022-11-05T05:02:34.699Z,1.6
2022-11-05T05:03:39.160Z,1.2
2022-11-05T05:04:43.259Z,1.4
2022-11-05T05:05:47.335Z,1.6
2022-11-05T05:06:51.559Z,1.9
2022-11-05T05:07:56.099Z,1.5
2022-11-05T05:09:03.283Z,2
2022-11-05T05:10:07.847Z,1.8
2022-11-05T05:11:12.055Z,2
2022-11-05T05:12:16.641Z,1.7
2022-11-05T05:13:21.019Z,2.4
2022-11-05T05:14:25.619Z,2.3
2022-11-05T05:15:30.143Z,2.2
2022-11-05T05:16:34.727Z,1.9
2022-11-05T05:17:38.794Z,2.3
2022-11-05T05:18:46.170Z,1.7
2022-11-05T05:19:47.459Z,1.6
2022-11-05T05:20:57.234Z,2
2022-11-05T05:22:06.768Z,2
2022-11-05T05:23:14.244Z,2.1
2022-11-05T05:24:18.582Z,1.7
2022-11-05T05:25:23.059Z,1.8
2022-11-05T05:26:27.648Z,1.9
2022-11-05T05:27:31.848Z,1.9
2022-11-05T05:28:35.899Z,1.8
2022-11-05T05:29:40.473Z,1.9
2022-11-05T05:30:44.647Z,2.2
2022-11-05T05:31:49.192Z,2
2022-11-05T05:32:53.747Z,2.1
2022-11-05T05:33:57.831Z,1.9
2022-11-05T05:35:01.984Z,2.1
2022-11-05T05:36:11.044Z,2.1
2022-11-05T05:37:10.723Z,2
2022-11-05T05:38:15.296Z,2.2
2022-11-05T05:39:19.731Z,2.3
2022-11-05T05:40:23.919Z,2.4
2022-11-05T05:41:28.469Z,2.3
2022-11-05T05:42:32.608Z,2.5
2022-11-05T05:43:36.753Z,2.4
2022-11-05T05:44:40.747Z,2.2
2022-11-05T05:45:44.815Z,2.4
2022-11-05T05:46:49.015Z,2.4
2022-11-05T05:47:53.471Z,2.2
2022-11-05T05:48:57.695Z,2
2022-11-05T05:50:01.779Z,2.4
2022-11-05T05:51:06.524Z,2.5
2022-11-05T05:52:11.019Z,2.7
2022-11-05T05:53:15.616Z,2.8
2022-11-05T05:54:20.052Z,2.9
2022-11-05T05:55:24.752Z,3.1
2022-11-05T05:56:29.343Z,3.1
2022-11-05T05:57:33.956Z,3.1
2022-11-05T05:58:38.584Z,3
2022-11-05T05:59:43.219Z,2.8
2022-11-05T06:00:47.696Z,2.7
2022-11-05T06:01:52.491Z,2.3
2022-11-05T06:02:56.942Z,2.2
2022-11-05T06:04:01.024Z,2.4
2022-11-05T06:05:05.495Z,2.7
2022-11-05T06:06:09.748Z,2.1
2022-11-05T06:07:14.291Z,2
2022-11-05T06:08:18.652Z,2.2
2022-11-05T06:09:23.271Z,1.9
2022-11-05T06:10:27.881Z,1.7
2022-11-05T06:11:32.433Z,2.1
2022-11-05T06:12:36.619Z,2.1
2022-11-05T06:13:41.142Z,1.7
2022-11-05T06:14:45.719Z,2
2022-11-05T06:15:49.880Z,1.9
2022-11-05T06:16:54.495Z,2.1
2022-11-05T06:17:58.996Z,2
2022-11-05T06:19:03.470Z,2.1
2022-11-05T06:20:07.691Z,2.3
2022-11-05T06:21:12.275Z,2.1
2022-11-05T06:22:16.580Z,1.9
2022-11-05T06:23:20.837Z,2.4
2022-11-05T06:24:25.411Z,2.2
2022-11-05T06:25:30.155Z,2.3
2022-11-05T06:26:34.683Z,2.2
2022-11-05T06:27:39.259Z,2.1
2022-11-05T06:28:44.078Z,2.1
2022-11-05T06:29:48.340Z,1.8
2022-11-05T06:30:52.987Z,1.9
2022-11-05T06:31:57.116Z,1.9
2022-11-05T06:33:01.096Z,2.2
2022-11-05T06:34:05.326Z,1.9
2022-11-05T06:35:09.394Z,1.8
2022-11-05T06:36:14.062Z,1.8
2022-11-05T06:37:18.330Z,2.1
2022-11-05T06:38:22.406Z,1.8
2022-11-05T06:39:27.051Z,2.2
2022-11-05T06:40:31.621Z,2.1
2022-11-05T06:41:50.938Z,2
2022-11-05T06:42:40.578Z,2.2
2022-11-05T06:43:44.893Z,2
2022-11-05T06:44:49.567Z,1.9
2022-11-05T06:45:54.642Z,2.3
2022-11-05T06:46:59.157Z,2.3
2022-11-05T06:48:03.249Z,2.1
2022-11-05T06:49:07.401Z,2.2
2022-11-05T06:50:11.582Z,2.4
2022-11-05T06:51:16.197Z,2.6
2022-11-05T06:52:20.500Z,2.2
2022-11-05T06:53:24.630Z,2
2022-11-05T06:54:29.098Z,2
2022-11-05T06:55:33.458Z,1.9
2022-11-05T06:56:38.041Z,1.8
2022-11-05T06:57:42.846Z,1.8
2022-11-05T06:58:47.619Z,2
2022-11-05T06:59:55.804Z,1.9
2022-11-05T07:00:56.378Z,2.1
2022-11-05T07:02:01.076Z,2.1
2022-11-05T07:03:05.494Z,2.1
2022-11-05T07:04:09.617Z,2.1
2022-11-05T07:05:14.094Z,1.8
2022-11-05T07:06:18.278Z,1.9
2022-11-05T07:07:22.575Z,1.6
2022-11-05T07:08:26.793Z,1.7
2022-11-05T07:09:31.390Z,1.6
2022-11-05T07:10:36.893Z,2.1
2022-11-05T07:11:42.430Z,2
2022-11-05T07:12:47.178Z,1.9
2022-11-05T07:13:51.790Z,2.4
2022-11-05T07:14:56.565Z,2
2022-11-05T07:16:01.009Z,2.2
2022-11-05T07:17:05.687Z,2.4
2022-11-05T07:18:10.190Z,2.2
2022-11-05T07:19:14.183Z,2.4
2022-11-05T07:20:18.470Z,2.4
2022-11-05T07:21:23.511Z,2.8
2022-11-05T07:22:28.870Z,3.2
2022-11-05T07:23:33.962Z,2.5
2022-11-05T07:24:39.223Z,2.2
2022-11-05T07:25:43.998Z,2.6
2022-11-05T07:26:48.778Z,3
2022-11-05T07:27:53.890Z,2.9
2022-11-05T07:28:59.378Z,2.5
2022-11-05T07:30:04.669Z,2.5
2022-11-05T07:31:10.561Z,2.7
2022-11-05T07:32:16.007Z,2.4
2022-11-05T07:33:20.582Z,2.3
2022-11-05T07:34:25.529Z,2.4
2022-11-05T07:35:29.962Z,2.3
2022-11-05T07:36:34.582Z,2.5
2022-11-05T07:37:39.151Z,2.1
2022-11-05T07:38:43.698Z,2
2022-11-05T07:39:47.815Z,1.9
2022-11-05T07:40:51.902Z,2.1
2022-11-05T07:41:56.093Z,2
2022-11-05T07:43:00.602Z,2.1
2022-11-05T07:44:04.770Z,2.1
2022-11-05T07:45:09.355Z,2
2022-11-05T07:46:13.985Z,2.3
2022-11-05T07:47:18.050Z,2
2022-11-05T07:48:22.530Z,2.2
2022-11-05T07:49:27.004Z,2.3
2022-11-05T07:50:31.155Z,2.2
2022-11-05T07:51:35.774Z,2.2
2022-11-05T07:52:40.524Z,2.5
2022-11-05T07:53:45.581Z,2.3
2022-11-05T07:54:49.062Z,2.7
2022-11-05T07:55:54.054Z,2.4
2022-11-05T07:56:58.226Z,2
2022-11-05T07:58:02.351Z,1.9
2022-11-05T07:59:07.014Z,1.8
2022-11-05T08:00:11.729Z,1.9
2022-11-05T08:01:16.416Z,2.2
2022-11-05T08:02:20.879Z,2.2
2022-11-05T08:03:25.388Z,2.1
2022-11-05T08:04:29.814Z,2.1
2022-11-05T08:05:33.870Z,2.4
2022-11-05T08:06:38.005Z,2.6
2022-11-05T08:07:42.604Z,2.7
2022-11-05T08:08:47.153Z,2.7
2022-11-05T08:09:51.303Z,2.8
2022-11-05T08:10:55.438Z,2.6
2022-11-05T08:12:03.236Z,2.7
2022-11-05T08:13:07.242Z,3
2022-11-05T08:14:11.850Z,2.9
2022-11-05T08:15:16.502Z,3
2022-11-05T08:16:20.826Z,2.8
2022-11-05T08:17:25.954Z,2.8
2022-11-05T08:18:30.557Z,2.6
2022-11-05T08:19:35.186Z,2.6
2022-11-05T08:20:39.826Z,2.9
2022-11-05T08:21:44.286Z,2.7
2022-11-05T08:22:48.826Z,3.1
2022-11-05T08:23:53.501Z,3.3
2022-11-05T08:25:01.450Z,3.3
2022-11-05T08:26:02.614Z,3.2
2022-11-05T08:27:07.347Z,3.2
2022-11-05T08:28:11.899Z,3.1
2022-11-05T08:29:17.206Z,3.2
2022-11-05T08:30:21.802Z,3
2022-11-05T08:31:26.382Z,3.1
2022-11-05T08:32:31.070Z,3.1
2022-11-05T08:33:35.419Z,3.3
2022-11-05T08:34:39.826Z,3.2
2022-11-05T08:35:44.382Z,3.8
2022-11-05T08:36:48.926Z,3.1
2022-11-05T08:37:53.041Z,3.7
2022-11-05T08:39:00.166Z,3.7
2022-11-05T08:40:04.802Z,3.2
2022-11-05T08:41:09.451Z,3.6
2022-11-05T08:42:14.126Z,3.7
2022-11-05T08:43:18.626Z,3.7
2022-11-05T08:44:23.162Z,3.2
2022-11-05T08:45:27.750Z,3.5
2022-11-05T08:46:32.755Z,3.6
2022-11-05T08:47:36.979Z,3.9
2022-11-05T08:48:41.443Z,3.1
2022-11-05T08:49:45.773Z,3.3
2022-11-05T08:50:50.229Z,3.6
2022-11-05T08:51:54.843Z,3.2
2022-11-05T08:52:59.399Z,3.2
2022-11-05T08:54:04.243Z,3.2
2022-11-05T08:55:08.702Z,3.2
2022-11-05T08:56:13.197Z,3.3
2022-11-05T08:57:17.873Z,3
2022-11-05T08:58:22.409Z,3
2022-11-05T08:59:26.843Z,3.1
2022-11-05T09:00:30.954Z,2.9
2022-11-05T09:01:35.200Z,3
2022-11-05T09:02:39.689Z,3
2022-11-05T09:03:43.649Z,2.9
2022-11-05T09:04:47.768Z,2.9
2022-11-05T09:05:52.368Z,2.5
2022-11-05T09:06:56.563Z,2.6
2022-11-05T09:08:01.723Z,3.6
2022-11-05T09:09:08.825Z,5.3
2022-11-05T09:10:13.326Z,7.2
2022-11-05T09:11:18.052Z,20.3
2022-11-05T09:12:22.344Z,11.1
2022-11-05T09:13:27.333Z,13.1
2022-11-05T09:14:31.866Z,31.2
2022-11-05T09:15:36.153Z,49.7
2022-11-05T09:16:40.734Z,37.2
2022-11-05T09:17:45.369Z,31
2022-11-05T09:18:50.038Z,15.5
2022-11-05T09:19:54.541Z,25.6
2022-11-05T09:20:59.121Z,23.3
2022-11-05T09:22:03.706Z,14.3
2022-11-05T09:23:08.667Z,24.7
2022-11-05T09:24:13.130Z,33.2
2022-11-05T09:25:17.560Z,13.1
2022-11-05T09:26:21.873Z,22.9
2022-11-05T09:27:26.066Z,19.9
2022-11-05T09:28:30.598Z,12.9
2022-11-05T09:29:34.766Z,15.3
2022-11-05T09:30:39.306Z,12.7
2022-11-05T09:31:43.913Z,5.1
2022-11-05T09:32:48.573Z,14.1
2022-11-05T09:33:53.101Z,15.6
2022-11-05T09:34:57.693Z,5.4
2022-11-05T09:36:02.357Z,11.5
2022-11-05T09:37:06.866Z,11.2
2022-11-05T09:38:11.571Z,6.7
2022-11-05T09:39:16.158Z,6.1
2022-11-05T09:40:20.914Z,11.9
2022-11-05T09:41:25.103Z,8.2
2022-11-05T09:42:32.294Z,8.2
2022-11-05T09:43:36.941Z,7.6
2022-11-05T09:44:41.521Z,11.8
2022-11-05T09:45:48.633Z,11.1
2022-11-05T09:46:52.794Z,9.6
2022-11-05T09:47:57.282Z,5.9
2022-11-05T09:49:01.973Z,10
2022-11-05T09:50:06.504Z,10.4
2022-11-05T09:51:15.900Z,10.7
2022-11-05T09:52:18.327Z,9.1
2022-11-05T09:53:27.869Z,12.1
2022-11-05T09:54:32.393Z,14.8
2022-11-05T09:55:36.888Z,15.4
2022-11-05T09:56:44.138Z,9.6
2022-11-05T09:57:48.409Z,12.6
2022-11-05T09:58:55.548Z,10.5
2022-11-05T10:00:05.417Z,8.2
2022-11-05T10:01:10.539Z,8.6
2022-11-05T10:02:15.396Z,9
2022-11-05T10:03:19.865Z,8.4
2022-11-05T10:04:24.349Z,11.2
2022-11-05T10:05:28.673Z,12.2
2022-11-05T10:06:33.137Z,12.1
2022-11-05T10:07:37.662Z,10.9
2022-11-05T10:08:44.872Z,8.9
2022-11-05T10:09:52.055Z,6.7
2022-11-05T10:10:59.281Z,6.7
2022-11-05T10:12:11.838Z,6.2
2022-11-05T10:13:16.041Z,5.3
2022-11-05T10:14:30.593Z,5.2
2022-11-05T10:15:34.805Z,4.9
2022-11-05T10:16:39.428Z,4.2
2022-11-05T10:17:43.497Z,6.3
2022-11-05T10:18:50.938Z,6.9
2022-11-05T10:19:55.278Z,6.4
2022-11-05T10:21:07.404Z,5.4
2022-11-05T10:22:16.748Z,7.7
2022-11-05T10:23:21.168Z,5.8
2022-11-05T10:24:25.737Z,8.1
2022-11-05T10:25:30.364Z,7.6
2022-11-05T10:26:35.045Z,6.8
2022-11-05T10:27:39.662Z,6.2
2022-11-05T10:28:44.160Z,8.9
2022-11-05T10:29:48.741Z,14.3
2022-11-05T10:30:52.825Z,15.4
2022-11-05T10:31:57.517Z,13.2
2022-11-05T10:33:02.079Z,10.2
2022-11-05T10:34:06.533Z,6.7
2022-11-05T10:35:11.189Z,6.2
2022-11-05T10:36:15.677Z,6.9
2022-11-05T10:37:25.931Z,5.1
2022-11-05T10:38:30.505Z,5.5
2022-11-05T10:39:35.089Z,6.1
2022-11-05T10:40:39.741Z,5.3
2022-11-05T10:41:54.529Z,7.5
2022-11-05T10:43:06.841Z,8.5
2022-11-05T10:44:18.898Z,7.4
2022-11-05T10:45:25.925Z,7.9
2022-11-05T10:46:41.238Z,6.9
2022-11-05T10:47:45.390Z,7.4
2022-11-05T10:49:00.213Z,6.1
2022-11-05T10:50:04.696Z,6.4
2022-11-05T10:51:09.356Z,6.4
2022-11-05T10:52:14.170Z,5.7
2022-11-05T10:53:21.646Z,5.9
2022-11-05T10:54:31.093Z,5.4
2022-11-05T10:55:35.659Z,6.5
2022-11-05T10:56:42.913Z,7.5
2022-11-05T10:57:48.001Z,5.8
2022-11-05T10:58:52.569Z,6.5
2022-11-05T10:59:57.177Z,7.3
2022-11-05T11:01:11.966Z,7.2
2022-11-05T11:02:16.602Z,6.9
2022-11-05T11:03:21.058Z,8.3
2022-11-05T11:04:38.013Z,7.2
2022-11-05T11:05:40.395Z,7.3
2022-11-05T11:06:44.985Z,7.6
2022-11-05T11:07:52.229Z,6.9
2022-11-05T11:08:56.712Z,7.5
2022-11-05T11:10:01.430Z,7.2
2022-11-05T11:11:05.902Z,6.6
2022-11-05T11:12:10.510Z,7.4
2022-11-05T11:13:15.049Z,6.7
2022-11-05T11:14:19.238Z,6.6
2022-11-05T11:15:23.609Z,6.4
2022-11-05T11:16:28.370Z,6.4
2022-11-05T11:17:32.851Z,5.7
2022-11-05T11:18:40.166Z,6.6
2022-11-05T11:19:41.946Z,6.8
2022-11-05T11:20:46.038Z,8
2022-11-05T11:21:50.690Z,8.1
2022-11-05T11:23:05.438Z,7.3
2022-11-05T11:24:14.997Z,9.7
2022-11-05T11:25:19.322Z,8.4
2022-11-05T11:26:23.637Z,10.3
2022-11-05T11:27:33.503Z,9
2022-11-05T11:28:38.169Z,7.4
2022-11-05T11:29:49.273Z,11.8
2022-11-05T11:30:49.700Z,8.8
2022-11-05T11:31:54.027Z,10.4
2022-11-05T11:32:58.431Z,11.4
2022-11-05T11:34:05.666Z,8.3
2022-11-05T11:35:12.657Z,8.3
2022-11-05T11:36:23.283Z,8
2022-11-05T11:37:27.385Z,9
2022-11-05T11:38:31.994Z,9.1
2022-11-05T11:39:36.622Z,7.5
2022-11-05T11:40:41.249Z,9.1
2022-11-05T11:41:45.726Z,9
2022-11-05T11:42:49.894Z,8.9
2022-11-05T11:43:54.449Z,8.3
2022-11-05T11:45:02.117Z,8.1
2022-11-05T11:46:09.967Z,7.4
2022-11-05T11:47:13.851Z,9.6
2022-11-05T11:48:18.522Z,7.4
2022-11-05T11:49:22.929Z,8.2
2022-11-05T11:50:32.830Z,9
2022-11-05T11:51:45.669Z,9.2
2022-11-05T11:52:47.997Z,8.1
2022-11-05T11:53:52.614Z,8
2022-11-05T11:54:58.079Z,11.7
2022-11-05T11:56:11.601Z,8.6
2022-11-05T11:57:16.141Z,8.3
2022-11-05T11:58:25.717Z,8.4
2022-11-05T12:00:02.292Z,9.3
2022-11-05T12:00:40.179Z,8
2022-11-05T12:01:44.676Z,8.2
2022-11-05T12:02:58.779Z,7.2
2022-11-05T12:04:07.239Z,9.7
2022-11-05T12:05:16.878Z,8.9
2022-11-05T12:06:26.333Z,9.8
2022-11-05T12:07:36.179Z,9
2022-11-05T12:08:54.279Z,8.3
2022-11-05T12:09:58.913Z,7.7
2022-11-05T12:11:08.613Z,7.2
2022-11-05T12:12:18.473Z,6.3
2022-11-05T12:13:22.807Z,6.4
2022-11-05T12:14:32.626Z,8.1
2022-11-05T12:15:42.281Z,7.5
2022-11-05T12:16:50.003Z,7.3
2022-11-05T12:18:04.710Z,10.7
2022-11-05T12:19:14.407Z,8
2022-11-05T12:20:19.007Z,8
2022-11-05T12:21:51.227Z,7.9
2022-11-05T12:22:43.257Z,10.3
2022-11-05T12:23:58.210Z,11.7
2022-11-05T12:25:10.374Z,10.4
2022-11-05T12:26:17.742Z,11.6
2022-11-05T12:27:27.661Z,7.2
2022-11-05T12:28:58.079Z,8
2022-11-05T12:29:52.072Z,7.6
2022-11-05T12:31:06.974Z,11
2022-11-05T12:32:16.711Z,14.6
2022-11-05T12:33:26.061Z,7.7
2022-11-05T12:34:35.925Z,6.8
2022-11-05T12:35:52.102Z,6.4
2022-11-05T12:36:56.131Z,6
2022-11-05T12:38:08.921Z,5.9
2022-11-05T12:39:18.701Z,6.9
2022-11-05T12:40:28.121Z,6.7
2022-11-05T12:41:38.569Z,8.7
2022-11-05T12:42:53.305Z,9
2022-11-05T12:44:05.969Z,9.6
2022-11-05T12:45:20.857Z,7.6
2022-11-05T12:46:30.337Z,7.7
2022-11-05T12:47:37.529Z,7.2
2022-11-05T12:48:50.290Z,8.5
2022-11-05T12:50:02.423Z,6.4
2022-11-05T12:51:12.390Z,4.4
2022-11-05T12:52:16.829Z,4.7
2022-11-05T12:53:26.225Z,5.2
2022-11-05T12:54:35.678Z,5
2022-11-05T12:55:48.509Z,4.2
2022-11-05T12:56:49.749Z,3.7
2022-11-05T12:57:53.825Z,3.8
2022-11-05T12:58:58.051Z,9.4
2022-11-05T13:00:07.894Z,5.5
2022-11-05T13:01:15.399Z,3.2
2022-11-05T13:02:24.980Z,5.6
2022-11-05T13:03:39.561Z,4.3
2022-11-05T13:04:49.409Z,4.3
2022-11-05T13:05:53.958Z,3.9
2022-11-05T13:06:58.574Z,3.6
2022-11-05T13:08:03.177Z,3.9
2022-11-05T13:09:12.885Z,3.8
2022-11-05T13:10:17.454Z,3.5
2022-11-05T13:11:26.917Z,20.3
2022-11-05T13:12:34.145Z,8.6
2022-11-05T13:13:38.795Z,5.2
2022-11-05T13:14:43.301Z,4
2022-11-05T13:15:52.951Z,2.9
2022-11-05T13:17:00.177Z,3.7
2022-11-05T13:18:09.768Z,3.1
2022-11-05T13:19:13.986Z,3.4
2022-11-05T13:20:28.361Z,2.7
2022-11-05T13:21:32.592Z,2.4
2022-11-05T13:22:37.152Z,2
2022-11-05T13:23:46.818Z,2.5
2022-11-05T13:24:53.853Z,9.5
2022-11-05T13:25:58.525Z,3.4
2022-11-05T13:27:06.126Z,2.5
2022-11-05T13:28:15.769Z,2.2
2022-11-05T13:29:30.437Z,2
2022-11-05T13:30:34.563Z,2.5
2022-11-05T13:31:38.729Z,2.7
2022-11-05T13:32:43.273Z,2
2022-11-05T13:33:47.976Z,2.2
2022-11-05T13:34:52.922Z,1.8
2022-11-05T13:35:57.150Z,1.8
2022-11-05T13:37:14.400Z,1.7
2022-11-05T13:38:23.997Z,1.8
2022-11-05T13:39:33.681Z,1.9
2022-11-05T13:40:43.393Z,1.8
2022-11-05T13:41:55.776Z,2.1
2022-11-05T13:43:10.786Z,2.2
2022-11-05T13:44:23.315Z,2.2
2022-11-05T13:45:32.793Z,2
2022-11-05T13:46:47.507Z,3
2022-11-05T13:48:02.244Z,4
2022-11-05T13:49:17.168Z,3.1
2022-11-05T13:50:21.870Z,2.1
2022-11-05T13:51:39.279Z,2.3
2022-11-05T13:52:51.112Z,2.4
2022-11-05T13:54:00.815Z,2.3
2022-11-05T13:55:13.188Z,2.6
2022-11-05T13:56:25.097Z,2.8
2022-11-05T13:57:40.009Z,3.4
2022-11-05T13:58:49.840Z,2.5
2022-11-05T14:00:00.388Z,2
2022-11-05T14:01:07.622Z,2.2
2022-11-05T14:02:17.282Z,2.1
2022-11-05T14:03:21.325Z,2
2022-11-05T14:04:25.733Z,2.1
2022-11-05T14:05:32.804Z,2.2
2022-11-05T14:06:37.424Z,2.3
2022-11-05T14:07:41.961Z,2.1
2022-11-05T14:08:46.145Z,2.5
2022-11-05T14:09:50.757Z,3
2022-11-05T14:11:00.432Z,2.5
2022-11-05T14:12:05.020Z,2.9
2022-11-05T14:13:19.841Z,3.3
2022-11-05T14:14:24.253Z,3.4
2022-11-05T14:15:28.813Z,2.8
2022-11-05T14:16:33.481Z,2.9
2022-11-05T14:17:41.082Z,3.1
2022-11-05T14:18:53.276Z,2.1
2022-11-05T14:20:08.071Z,2.1
2022-11-05T14:21:22.852Z,2.8
2022-11-05T14:22:27.452Z,7.9
2022-11-05T14:23:31.956Z,11.7
2022-11-05T14:24:41.740Z,9.2
2022-11-05T14:25:46.241Z,6
2022-11-05T14:26:53.506Z,3.9
2022-11-05T14:28:01.193Z,3.6
2022-11-05T14:29:05.665Z,4.8
2022-11-05T14:30:10.292Z,3.7
2022-11-05T14:31:35.872Z,4.8
2022-11-05T14:32:34.581Z,5.3
2022-11-05T14:33:42.301Z,5.5
2022-11-05T14:34:52.812Z,6.7
2022-11-05T14:36:02.714Z,4.4
2022-11-05T14:37:17.477Z,3.6
2022-11-05T14:38:22.364Z,3.9
2022-11-05T14:39:26.437Z,3.2
2022-11-05T14:40:31.219Z,4.2
2022-11-05T14:41:40.745Z,3.3
2022-11-05T14:42:53.547Z,2.6
2022-11-05T14:43:58.265Z,3
2022-11-05T14:45:02.641Z,2.5
2022-11-05T14:46:17.388Z,3
2022-11-05T14:47:21.426Z,2.8
2022-11-05T14:48:25.984Z,2.9
2022-11-05T14:49:36.161Z,3.5
2022-11-05T14:50:40.592Z,3.1
2022-11-05T14:51:44.837Z,3.9
2022-11-05T14:52:52.117Z,3.2
2022-11-05T14:53:56.593Z,3.5
2022-11-05T14:55:08.700Z,2.9
2022-11-05T14:56:13.225Z,2.9
2022-11-05T14:57:17.337Z,4
2022-11-05T14:58:32.113Z,4.5
2022-11-05T14:59:36.625Z,5.1
2022-11-05T15:00:46.289Z,5.6
2022-11-05T15:01:51.123Z,5.5
2022-11-05T15:02:55.473Z,4.9
2022-11-05T15:04:02.575Z,5.5
2022-11-05T15:05:17.272Z,7.1
2022-11-05T15:06:29.500Z,5.6
2022-11-05T15:07:34.087Z,6
2022-11-05T15:08:38.710Z,7.1
2022-11-05T15:09:48.860Z,7.1
2022-11-05T15:10:53.589Z,7.7
2022-11-05T15:12:08.229Z,7.5
2022-11-05T15:13:20.541Z,10
2022-11-05T15:14:27.835Z,7.6
2022-11-05T15:15:35.124Z,5.3
2022-11-05T15:16:39.293Z,5.2
2022-11-05T15:17:43.657Z,5
2022-11-05T15:18:59.524Z,5.4
2022-11-05T15:20:04.646Z,5.7